KSYI/SYI METAR and TAF weather

Enter ICAO airport designator
Station Type Date Time Source
KSYI METAR 2022/01/18 06:55 UTC NOAA

KSYI 180655Z AUTO 00000KT 10SM CLR M02/M02 A3010 RMK A01


Station Type Date Time Source
KSYI Decoded METAR 2022/01/18 06:55 UTC NOAA

Station name not available
Jan 18, 2022 - 01:55 AM EST / 2022.01.18 0655 UTC
Wind: Calm:0
Visibility: 10 mile(s):0
Sky conditions: clear
Temperature: 28 F (-2 C)
Dew Point: 28 F (-2 C)
Relative Humidity: 100%
Pressure (altimeter): 30.1 in. Hg (1019 hPa)
ob: KSYI 180655Z AUTO 00000KT 10SM CLR M02/M02 A3010 RMK A01
cycle: 7

Station Type Date Time Source
KSYI TAF UTC NOAA

Error!

Example: see airport list